sensor_id;sensor_type;location;lat;lon;timestamp;P1;durP1;ratioP1;P2;durP2;ratioP2
27999;SDS011;15328;50.860;10.562;2023-01-25T00:00:44;21.95;;;9.90;;
27999;SDS011;15328;50.860;10.562;2023-01-25T00:05:44;19.70;;;8.77;;
27999;SDS011;15328;50.860;10.562;2023-01-25T00:10:49;19.75;;;8.98;;
27999;SDS011;15328;50.860;10.562;2023-01-25T00:15:50;21.10;;;9.48;;
27999;SDS011;15328;50.860;10.562;2023-01-25T00:20:51;23.10;;;9.75;;
27999;SDS011;15328;50.860;10.562;2023-01-25T00:25:57;22.15;;;9.50;;
27999;SDS011;15328;50.860;10.562;2023-01-25T00:31:01;23.10;;;9.65;;
27999;SDS011;15328;50.860;10.562;2023-01-25T00:41:26;19.85;;;9.40;;
27999;SDS011;15328;50.860;10.562;2023-01-25T00:46:27;21.50;;;9.23;;
27999;SDS011;15328;50.860;10.562;2023-01-25T00:51:27;20.03;;;8.63;;
27999;SDS011;15328;50.860;10.562;2023-01-25T00:56:27;19.35;;;8.05;;
27999;SDS011;15328;50.860;10.562;2023-01-25T01:01:28;18.40;;;8.48;;
27999;SDS011;15328;50.860;10.562;2023-01-25T01:06:28;21.50;;;8.50;;
27999;SDS011;15328;50.860;10.562;2023-01-25T01:11:47;20.75;;;8.45;;
27999;SDS011;15328;50.860;10.562;2023-01-25T01:22:44;23.13;;;9.40;;
27999;SDS011;15328;50.860;10.562;2023-01-25T01:27:44;21.65;;;9.35;;
27999;SDS011;15328;50.860;10.562;2023-01-25T01:32:45;19.27;;;8.97;;
27999;SDS011;15328;50.860;10.562;2023-01-25T01:37:45;23.25;;;10.32;;
27999;SDS011;15328;50.860;10.562;2023-01-25T01:43:02;26.40;;;10.10;;
27999;SDS011;15328;50.860;10.562;2023-01-25T01:53:04;21.23;;;8.82;;
27999;SDS011;15328;50.860;10.562;2023-01-25T01:58:05;20.90;;;7.85;;
27999;SDS011;15328;50.860;10.562;2023-01-25T02:03:07;17.85;;;8.82;;
27999;SDS011;15328;50.860;10.562;2023-01-25T02:08:09;21.45;;;9.02;;
27999;SDS011;15328;50.860;10.562;2023-01-25T02:13:12;22.77;;;9.50;;
27999;SDS011;15328;50.860;10.562;2023-01-25T02:18:12;20.05;;;8.05;;
27999;SDS011;15328;50.860;10.562;2023-01-25T02:23:17;18.42;;;8.30;;
27999;SDS011;15328;50.860;10.562;2023-01-25T02:28:22;17.27;;;7.38;;
27999;SDS011;15328;50.860;10.562;2023-01-25T02:33:26;18.83;;;8.15;;
27999;SDS011;15328;50.860;10.562;2023-01-25T02:38:27;22.05;;;8.95;;
27999;SDS011;15328;50.860;10.562;2023-01-25T02:43:31;23.25;;;9.57;;
27999;SDS011;15328;50.860;10.562;2023-01-25T02:48:34;20.70;;;9.02;;
27999;SDS011;15328;50.860;10.562;2023-01-25T02:53:34;19.67;;;8.40;;
27999;SDS011;15328;50.860;10.562;2023-01-25T02:58:35;17.83;;;7.45;;
27999;SDS011;15328;50.860;10.562;2023-01-25T03:03:35;17.77;;;8.50;;
27999;SDS011;15328;50.860;10.562;2023-01-25T03:08:35;15.70;;;7.13;;
27999;SDS011;15328;50.860;10.562;2023-01-25T03:13:36;16.90;;;7.55;;
27999;SDS011;15328;50.860;10.562;2023-01-25T03:18:37;16.63;;;7.45;;
27999;SDS011;15328;50.860;10.562;2023-01-25T03:23:38;18.30;;;7.82;;
27999;SDS011;15328;50.860;10.562;2023-01-25T03:28:40;17.38;;;7.72;;
27999;SDS011;15328;50.860;10.562;2023-01-25T03:33:41;16.92;;;7.95;;
27999;SDS011;15328;50.860;10.562;2023-01-25T03:38:42;19.20;;;7.38;;
27999;SDS011;15328;50.860;10.562;2023-01-25T03:43:42;18.23;;;7.95;;
27999;SDS011;15328;50.860;10.562;2023-01-25T03:48:42;15.03;;;6.93;;
27999;SDS011;15328;50.860;10.562;2023-01-25T03:53:43;15.10;;;7.10;;
27999;SDS011;15328;50.860;10.562;2023-01-25T03:58:43;16.03;;;6.80;;
27999;SDS011;15328;50.860;10.562;2023-01-25T04:03:43;15.40;;;6.72;;
27999;SDS011;15328;50.860;10.562;2023-01-25T04:08:44;12.53;;;6.03;;
27999;SDS011;15328;50.860;10.562;2023-01-25T04:13:44;13.27;;;6.10;;
27999;SDS011;15328;50.860;10.562;2023-01-25T04:18:44;12.80;;;6.32;;
27999;SDS011;15328;50.860;10.562;2023-01-25T04:23:45;12.43;;;5.90;;
27999;SDS011;15328;50.860;10.562;2023-01-25T04:28:45;15.15;;;7.15;;
27999;SDS011;15328;50.860;10.562;2023-01-25T04:33:46;13.97;;;6.80;;
27999;SDS011;15328;50.860;10.562;2023-01-25T04:38:46;17.55;;;7.70;;
27999;SDS011;15328;50.860;10.562;2023-01-25T04:43:46;12.60;;;6.43;;
27999;SDS011;15328;50.860;10.562;2023-01-25T04:48:47;14.68;;;6.85;;
27999;SDS011;15328;50.860;10.562;2023-01-25T04:53:47;12.57;;;6.53;;
27999;SDS011;15328;50.860;10.562;2023-01-25T04:58:47;14.30;;;6.55;;
27999;SDS011;15328;50.860;10.562;2023-01-25T05:03:48;13.10;;;6.60;;
27999;SDS011;15328;50.860;10.562;2023-01-25T05:08:48;13.75;;;7.07;;
27999;SDS011;15328;50.860;10.562;2023-01-25T05:13:48;12.55;;;5.85;;
27999;SDS011;15328;50.860;10.562;2023-01-25T05:18:49;12.23;;;5.72;;
27999;SDS011;15328;50.860;10.562;2023-01-25T05:23:49;15.93;;;6.18;;
27999;SDS011;15328;50.860;10.562;2023-01-25T05:28:50;10.27;;;5.27;;
27999;SDS011;15328;50.860;10.562;2023-01-25T05:33:50;14.67;;;5.93;;
27999;SDS011;15328;50.860;10.562;2023-01-25T05:38:50;15.90;;;6.57;;
27999;SDS011;15328;50.860;10.562;2023-01-25T05:43:51;15.15;;;6.60;;
27999;SDS011;15328;50.860;10.562;2023-01-25T05:48:52;13.35;;;5.40;;
27999;SDS011;15328;50.860;10.562;2023-01-25T05:53:53;11.63;;;5.85;;
27999;SDS011;15328;50.860;10.562;2023-01-25T05:58:56;9.73;;;5.10;;
27999;SDS011;15328;50.860;10.562;2023-01-25T06:03:57;15.30;;;8.00;;
27999;SDS011;15328;50.860;10.562;2023-01-25T06:08:57;17.92;;;7.88;;
27999;SDS011;15328;50.860;10.562;2023-01-25T06:13:58;17.58;;;7.20;;
27999;SDS011;15328;50.860;10.562;2023-01-25T06:18:58;14.73;;;6.72;;
27999;SDS011;15328;50.860;10.562;2023-01-25T06:23:58;19.52;;;8.32;;
27999;SDS011;15328;50.860;10.562;2023-01-25T06:28:59;16.23;;;7.20;;
27999;SDS011;15328;50.860;10.562;2023-01-25T06:33:59;16.67;;;7.57;;
27999;SDS011;15328;50.860;10.562;2023-01-25T06:39:03;20.45;;;9.05;;
27999;SDS011;15328;50.860;10.562;2023-01-25T06:44:03;23.38;;;10.65;;
27999;SDS011;15328;50.860;10.562;2023-01-25T06:49:04;14.70;;;6.75;;
27999;SDS011;15328;50.860;10.562;2023-01-25T06:54:04;14.17;;;6.93;;
27999;SDS011;15328;50.860;10.562;2023-01-25T06:59:05;16.30;;;7.00;;
27999;SDS011;15328;50.860;10.562;2023-01-25T07:04:06;15.93;;;7.07;;
27999;SDS011;15328;50.860;10.562;2023-01-25T07:09:10;23.38;;;9.50;;
27999;SDS011;15328;50.860;10.562;2023-01-25T07:14:13;18.70;;;8.13;;
27999;SDS011;15328;50.860;10.562;2023-01-25T07:19:13;20.67;;;8.65;;
27999;SDS011;15328;50.860;10.562;2023-01-25T07:24:14;18.58;;;8.05;;
27999;SDS011;15328;50.860;10.562;2023-01-25T07:29:16;16.25;;;7.88;;
27999;SDS011;15328;50.860;10.562;2023-01-25T07:34:16;16.13;;;7.60;;
27999;SDS011;15328;50.860;10.562;2023-01-25T07:39:16;20.85;;;8.25;;
27999;SDS011;15328;50.860;10.562;2023-01-25T07:44:17;17.30;;;7.70;;
27999;SDS011;15328;50.860;10.562;2023-01-25T07:49:17;12.83;;;6.70;;
27999;SDS011;15328;50.860;10.562;2023-01-25T07:54:17;17.13;;;8.57;;
27999;SDS011;15328;50.860;10.562;2023-01-25T07:59:18;18.93;;;8.33;;
27999;SDS011;15328;50.860;10.562;2023-01-25T08:04:18;16.93;;;7.03;;
27999;SDS011;15328;50.860;10.562;2023-01-25T08:09:18;16.55;;;7.10;;
27999;SDS011;15328;50.860;10.562;2023-01-25T08:14:19;13.30;;;6.63;;
27999;SDS011;15328;50.860;10.562;2023-01-25T08:19:19;13.98;;;6.65;;
27999;SDS011;15328;50.860;10.562;2023-01-25T08:24:21;13.70;;;6.78;;
27999;SDS011;15328;50.860;10.562;2023-01-25T08:29:21;15.65;;;7.68;;
27999;SDS011;15328;50.860;10.562;2023-01-25T08:34:22;15.40;;;6.85;;
27999;SDS011;15328;50.860;10.562;2023-01-25T08:39:23;13.15;;;6.15;;
27999;SDS011;15328;50.860;10.562;2023-01-25T08:44:23;11.15;;;5.78;;
27999;SDS011;15328;50.860;10.562;2023-01-25T08:49:25;9.85;;;4.80;;
27999;SDS011;15328;50.860;10.562;2023-01-25T08:54:26;9.90;;;5.22;;
27999;SDS011;15328;50.860;10.562;2023-01-25T08:59:27;9.60;;;4.90;;
27999;SDS011;15328;50.860;10.562;2023-01-25T09:04:27;8.35;;;4.25;;
27999;SDS011;15328;50.860;10.562;2023-01-25T09:09:28;10.75;;;4.80;;
27999;SDS011;15328;50.860;10.562;2023-01-25T09:14:29;11.38;;;5.63;;
27999;SDS011;15328;50.860;10.562;2023-01-25T09:19:29;11.80;;;6.27;;
27999;SDS011;15328;50.860;10.562;2023-01-25T09:24:29;8.45;;;4.40;;
27999;SDS011;15328;50.860;10.562;2023-01-25T09:29:30;8.13;;;4.30;;
27999;SDS011;15328;50.860;10.562;2023-01-25T09:34:30;7.70;;;4.53;;
27999;SDS011;15328;50.860;10.562;2023-01-25T09:39:31;9.48;;;4.80;;
27999;SDS011;15328;50.860;10.562;2023-01-25T09:55:14;7.35;;;4.45;;
27999;SDS011;15328;50.860;10.562;2023-01-25T10:00:19;10.10;;;4.43;;
27999;SDS011;15328;50.860;10.562;2023-01-25T10:05:27;8.40;;;4.78;;
27999;SDS011;15328;50.860;10.562;2023-01-25T10:15:38;9.15;;;3.97;;
27999;SDS011;15328;50.860;10.562;2023-01-25T10:20:47;6.70;;;4.13;;
27999;SDS011;15328;50.860;10.562;2023-01-25T10:25:54;8.07;;;4.70;;
27999;SDS011;15328;50.860;10.562;2023-01-25T10:31:02;9.88;;;4.88;;
27999;SDS011;15328;50.860;10.562;2023-01-25T10:36:06;9.85;;;5.38;;
27999;SDS011;15328;50.860;10.562;2023-01-25T10:41:25;8.23;;;4.32;;
27999;SDS011;15328;50.860;10.562;2023-01-25T10:52:30;9.50;;;5.43;;
27999;SDS011;15328;50.860;10.562;2023-01-25T10:57:33;10.80;;;5.57;;
27999;SDS011;15328;50.860;10.562;2023-01-25T11:02:37;12.20;;;6.20;;
27999;SDS011;15328;50.860;10.562;2023-01-25T11:07:40;11.05;;;5.90;;
27999;SDS011;15328;50.860;10.562;2023-01-25T11:12:40;11.57;;;6.40;;
27999;SDS011;15328;50.860;10.562;2023-01-25T11:17:41;12.83;;;6.40;;
27999;SDS011;15328;50.860;10.562;2023-01-25T11:22:47;11.88;;;6.68;;
27999;SDS011;15328;50.860;10.562;2023-01-25T11:32:49;10.82;;;6.00;;
27999;SDS011;15328;50.860;10.562;2023-01-25T11:37:57;13.15;;;6.63;;
27999;SDS011;15328;50.860;10.562;2023-01-25T11:43:19;13.85;;;6.57;;
27999;SDS011;15328;50.860;10.562;2023-01-25T12:10:32;14.70;;;7.43;;
27999;SDS011;15328;50.860;10.562;2023-01-25T12:26:35;13.82;;;8.10;;
27999;SDS011;15328;50.860;10.562;2023-01-25T12:31:41;15.25;;;7.50;;
27999;SDS011;15328;50.860;10.562;2023-01-25T12:36:45;16.02;;;8.50;;
27999;SDS011;15328;50.860;10.562;2023-01-25T12:41:52;13.38;;;7.88;;
27999;SDS011;15328;50.860;10.562;2023-01-25T12:52:19;19.25;;;9.48;;
27999;SDS011;15328;50.860;10.562;2023-01-25T13:08:05;18.85;;;9.73;;
27999;SDS011;15328;50.860;10.562;2023-01-25T13:23:31;21.30;;;10.27;;
27999;SDS011;15328;50.860;10.562;2023-01-25T13:28:39;22.52;;;11.15;;
27999;SDS011;15328;50.860;10.562;2023-01-25T13:33:41;44.30;;;16.80;;
27999;SDS011;15328;50.860;10.562;2023-01-25T13:38:41;20.73;;;10.57;;
27999;SDS011;15328;50.860;10.562;2023-01-25T13:43:42;26.52;;;12.52;;
27999;SDS011;15328;50.860;10.562;2023-01-25T13:48:47;23.23;;;10.68;;
27999;SDS011;15328;50.860;10.562;2023-01-25T13:53:55;24.98;;;11.43;;
27999;SDS011;15328;50.860;10.562;2023-01-25T13:58:57;21.88;;;10.70;;
27999;SDS011;15328;50.860;10.562;2023-01-25T14:03:59;25.05;;;11.90;;
27999;SDS011;15328;50.860;10.562;2023-01-25T14:09:03;24.02;;;11.18;;
27999;SDS011;15328;50.860;10.562;2023-01-25T14:14:29;22.33;;;10.23;;
27999;SDS011;15328;50.860;10.562;2023-01-25T14:19:34;20.92;;;9.73;;
27999;SDS011;15328;50.860;10.562;2023-01-25T14:24:35;22.60;;;10.90;;
27999;SDS011;15328;50.860;10.562;2023-01-25T14:29:36;19.35;;;9.60;;
27999;SDS011;15328;50.860;10.562;2023-01-25T14:34:37;19.00;;;10.05;;
27999;SDS011;15328;50.860;10.562;2023-01-25T14:39:37;21.40;;;10.48;;
27999;SDS011;15328;50.860;10.562;2023-01-25T14:44:37;19.67;;;9.73;;
27999;SDS011;15328;50.860;10.562;2023-01-25T14:49:39;21.20;;;10.02;;
27999;SDS011;15328;50.860;10.562;2023-01-25T14:54:58;20.30;;;9.95;;
27999;SDS011;15328;50.860;10.562;2023-01-25T15:05:44;19.17;;;9.63;;
27999;SDS011;15328;50.860;10.562;2023-01-25T15:10:51;22.50;;;11.18;;
27999;SDS011;15328;50.860;10.562;2023-01-25T15:16:00;20.10;;;10.10;;
27999;SDS011;15328;50.860;10.562;2023-01-25T15:21:02;24.98;;;11.90;;
27999;SDS011;15328;50.860;10.562;2023-01-25T15:26:10;26.17;;;11.77;;
27999;SDS011;15328;50.860;10.562;2023-01-25T15:31:24;25.23;;;10.95;;
27999;SDS011;15328;50.860;10.562;2023-01-25T15:36:28;22.38;;;10.43;;
27999;SDS011;15328;50.860;10.562;2023-01-25T15:41:47;23.13;;;11.40;;
27999;SDS011;15328;50.860;10.562;2023-01-25T15:46:58;22.02;;;10.35;;
27999;SDS011;15328;50.860;10.562;2023-01-25T15:52:00;29.52;;;13.63;;
27999;SDS011;15328;50.860;10.562;2023-01-25T15:57:04;30.80;;;14.15;;
27999;SDS011;15328;50.860;10.562;2023-01-25T16:02:04;30.17;;;13.73;;
27999;SDS011;15328;50.860;10.562;2023-01-25T16:07:15;26.53;;;12.60;;
27999;SDS011;15328;50.860;10.562;2023-01-25T16:12:26;29.38;;;14.05;;
27999;SDS011;15328;50.860;10.562;2023-01-25T16:17:26;24.95;;;11.30;;
27999;SDS011;15328;50.860;10.562;2023-01-25T16:22:29;23.55;;;10.98;;
27999;SDS011;15328;50.860;10.562;2023-01-25T16:27:29;24.17;;;10.77;;
27999;SDS011;15328;50.860;10.562;2023-01-25T16:32:34;21.70;;;10.40;;
27999;SDS011;15328;50.860;10.562;2023-01-25T16:37:35;22.17;;;10.45;;
27999;SDS011;15328;50.860;10.562;2023-01-25T16:42:35;24.60;;;10.80;;
27999;SDS011;15328;50.860;10.562;2023-01-25T16:47:35;24.35;;;10.75;;
27999;SDS011;15328;50.860;10.562;2023-01-25T16:52:36;29.88;;;13.13;;
27999;SDS011;15328;50.860;10.562;2023-01-25T16:57:37;33.42;;;16.08;;
27999;SDS011;15328;50.860;10.562;2023-01-25T17:02:38;18.23;;;9.10;;
27999;SDS011;15328;50.860;10.562;2023-01-25T17:07:39;14.27;;;8.68;;
27999;SDS011;15328;50.860;10.562;2023-01-25T17:12:40;14.70;;;7.55;;
27999;SDS011;15328;50.860;10.562;2023-01-25T17:17:42;13.77;;;7.57;;
27999;SDS011;15328;50.860;10.562;2023-01-25T17:22:42;15.57;;;8.32;;
27999;SDS011;15328;50.860;10.562;2023-01-25T17:27:48;16.65;;;8.73;;
27999;SDS011;15328;50.860;10.562;2023-01-25T17:32:48;14.53;;;7.80;;
27999;SDS011;15328;50.860;10.562;2023-01-25T17:37:52;13.07;;;7.30;;
27999;SDS011;15328;50.860;10.562;2023-01-25T17:42:53;14.07;;;8.27;;
27999;SDS011;15328;50.860;10.562;2023-01-25T17:47:53;15.87;;;7.97;;
27999;SDS011;15328;50.860;10.562;2023-01-25T17:52:54;17.15;;;8.75;;
27999;SDS011;15328;50.860;10.562;2023-01-25T17:57:55;17.65;;;9.05;;
27999;SDS011;15328;50.860;10.562;2023-01-25T18:02:56;17.13;;;8.68;;
27999;SDS011;15328;50.860;10.562;2023-01-25T18:07:57;15.48;;;8.50;;
27999;SDS011;15328;50.860;10.562;2023-01-25T18:12:58;15.25;;;8.85;;
27999;SDS011;15328;50.860;10.562;2023-01-25T18:17:58;14.75;;;7.97;;
27999;SDS011;15328;50.860;10.562;2023-01-25T18:22:59;13.35;;;7.18;;
27999;SDS011;15328;50.860;10.562;2023-01-25T18:27:59;12.48;;;7.35;;
27999;SDS011;15328;50.860;10.562;2023-01-25T18:33:00;12.75;;;7.00;;
27999;SDS011;15328;50.860;10.562;2023-01-25T18:38:00;13.63;;;7.47;;
27999;SDS011;15328;50.860;10.562;2023-01-25T18:43:01;12.02;;;7.00;;
27999;SDS011;15328;50.860;10.562;2023-01-25T18:48:02;12.77;;;7.15;;
27999;SDS011;15328;50.860;10.562;2023-01-25T18:53:05;13.10;;;7.45;;
27999;SDS011;15328;50.860;10.562;2023-01-25T18:58:06;14.77;;;8.32;;
27999;SDS011;15328;50.860;10.562;2023-01-25T19:03:06;13.27;;;7.18;;
27999;SDS011;15328;50.860;10.562;2023-01-25T19:08:06;14.47;;;8.23;;
27999;SDS011;15328;50.860;10.562;2023-01-25T19:13:07;13.77;;;7.63;;
27999;SDS011;15328;50.860;10.562;2023-01-25T19:18:07;15.33;;;8.17;;
27999;SDS011;15328;50.860;10.562;2023-01-25T19:23:07;15.43;;;8.40;;
27999;SDS011;15328;50.860;10.562;2023-01-25T19:28:08;14.43;;;7.90;;
27999;SDS011;15328;50.860;10.562;2023-01-25T19:33:08;14.93;;;8.00;;
27999;SDS011;15328;50.860;10.562;2023-01-25T19:38:10;14.55;;;7.85;;
27999;SDS011;15328;50.860;10.562;2023-01-25T19:43:10;15.25;;;7.80;;
27999;SDS011;15328;50.860;10.562;2023-01-25T19:48:11;14.68;;;7.95;;
27999;SDS011;15328;50.860;10.562;2023-01-25T19:53:11;16.17;;;9.13;;
27999;SDS011;15328;50.860;10.562;2023-01-25T19:58:11;16.50;;;9.20;;
27999;SDS011;15328;50.860;10.562;2023-01-25T20:03:12;22.17;;;11.02;;
27999;SDS011;15328;50.860;10.562;2023-01-25T20:08:12;32.05;;;14.23;;
27999;SDS011;15328;50.860;10.562;2023-01-25T20:13:12;19.55;;;10.68;;
27999;SDS011;15328;50.860;10.562;2023-01-25T20:18:12;22.08;;;11.00;;
27999;SDS011;15328;50.860;10.562;2023-01-25T20:23:13;22.67;;;11.38;;
27999;SDS011;15328;50.860;10.562;2023-01-25T20:28:13;19.13;;;10.57;;
27999;SDS011;15328;50.860;10.562;2023-01-25T20:33:13;20.33;;;10.30;;
27999;SDS011;15328;50.860;10.562;2023-01-25T20:38:15;19.98;;;10.57;;
27999;SDS011;15328;50.860;10.562;2023-01-25T20:43:16;22.65;;;11.18;;
27999;SDS011;15328;50.860;10.562;2023-01-25T20:48:16;17.65;;;10.25;;
27999;SDS011;15328;50.860;10.562;2023-01-25T20:53:16;17.48;;;9.88;;
27999;SDS011;15328;50.860;10.562;2023-01-25T20:58:17;17.85;;;9.07;;
27999;SDS011;15328;50.860;10.562;2023-01-25T21:03:17;14.82;;;7.95;;
27999;SDS011;15328;50.860;10.562;2023-01-25T21:08:18;15.38;;;8.23;;
27999;SDS011;15328;50.860;10.562;2023-01-25T21:13:19;15.52;;;7.55;;
27999;SDS011;15328;50.860;10.562;2023-01-25T21:18:20;13.77;;;7.20;;
27999;SDS011;15328;50.860;10.562;2023-01-25T21:23:20;15.10;;;8.30;;
27999;SDS011;15328;50.860;10.562;2023-01-25T21:28:20;16.87;;;8.90;;
27999;SDS011;15328;50.860;10.562;2023-01-25T21:33:21;15.43;;;8.63;;
27999;SDS011;15328;50.860;10.562;2023-01-25T21:38:21;14.15;;;8.13;;
27999;SDS011;15328;50.860;10.562;2023-01-25T21:43:24;14.45;;;8.27;;
27999;SDS011;15328;50.860;10.562;2023-01-25T21:48:24;16.10;;;9.03;;
27999;SDS011;15328;50.860;10.562;2023-01-25T21:53:45;18.20;;;8.90;;
27999;SDS011;15328;50.860;10.562;2023-01-25T21:58:47;15.05;;;8.00;;
27999;SDS011;15328;50.860;10.562;2023-01-25T22:03:50;18.30;;;9.07;;
27999;SDS011;15328;50.860;10.562;2023-01-25T22:08:51;15.65;;;8.23;;
27999;SDS011;15328;50.860;10.562;2023-01-25T22:13:52;19.02;;;9.15;;
27999;SDS011;15328;50.860;10.562;2023-01-25T22:18:53;16.13;;;8.55;;
27999;SDS011;15328;50.860;10.562;2023-01-25T22:23:54;14.63;;;8.02;;
27999;SDS011;15328;50.860;10.562;2023-01-25T22:28:55;16.80;;;8.77;;
27999;SDS011;15328;50.860;10.562;2023-01-25T22:33:57;17.67;;;8.95;;
27999;SDS011;15328;50.860;10.562;2023-01-25T22:38:58;15.70;;;8.48;;
27999;SDS011;15328;50.860;10.562;2023-01-25T22:43:59;15.68;;;8.75;;
27999;SDS011;15328;50.860;10.562;2023-01-25T22:48:59;15.43;;;8.43;;
27999;SDS011;15328;50.860;10.562;2023-01-25T22:53:59;18.93;;;8.70;;
27999;SDS011;15328;50.860;10.562;2023-01-25T22:59:00;16.23;;;7.72;;
27999;SDS011;15328;50.860;10.562;2023-01-25T23:04:01;17.25;;;8.63;;
27999;SDS011;15328;50.860;10.562;2023-01-25T23:09:02;16.98;;;8.52;;
27999;SDS011;15328;50.860;10.562;2023-01-25T23:14:05;16.33;;;8.18;;
27999;SDS011;15328;50.860;10.562;2023-01-25T23:19:26;16.05;;;7.75;;
27999;SDS011;15328;50.860;10.562;2023-01-25T23:24:26;15.48;;;8.07;;
27999;SDS011;15328;50.860;10.562;2023-01-25T23:29:27;16.33;;;8.10;;
27999;SDS011;15328;50.860;10.562;2023-01-25T23:34:27;18.70;;;8.60;;
27999;SDS011;15328;50.860;10.562;2023-01-25T23:39:33;18.63;;;8.50;;
27999;SDS011;15328;50.860;10.562;2023-01-25T23:44:33;15.63;;;8.38;;
27999;SDS011;15328;50.860;10.562;2023-01-25T23:49:34;17.42;;;7.97;;
27999;SDS011;15328;50.860;10.562;2023-01-25T23:54:34;18.50;;;9.03;;
27999;SDS011;15328;50.860;10.562;2023-01-25T23:59:34;17.93;;;7.97;;
